Time;durP1;ratioP1;P1;durP2;ratioP2;P2;SDS_P1;SDS_P2;PMS_P1;PMS_P2;Temp;Humidity;BMP_temperature;BMP_pressure;BME280_temperature;BME280_humidity;BME280_pressure;Samples;Min_cycle;Max_cycle;Signal;HPM_P1;HPM_P2
2021/04/25 00:01:03;;;;;;;5.97;4.13;;;8.20;35.50;;;;;;6096023;23;20212;-77
2021/04/25 00:03:30;;;;;;;6.72;4.35;;;8.20;35.70;;;;;;6095610;23;20275;-76
2021/04/25 00:05:58;;;;;;;6.35;4.40;;;8.10;35.90;;;;;;6095765;23;20264;-76
2021/04/25 00:08:24;;;;;;;6.55;4.85;;;8.10;36.20;;;;;;6095424;23;20229;-77
2021/04/25 00:10:50;;;;;;;5.50;3.70;;;8.10;36.50;;;;;;6096269;23;20213;-76
2021/04/25 00:13:17;;;;;;;5.57;4.40;;;8.00;36.70;;;;;;6095807;23;20527;-77
2021/04/25 00:15:43;;;;;;;11.13;5.78;;;8.00;37.00;;;;;;6095373;23;20272;-77
2021/04/25 00:18:10;;;;;;;6.10;5.10;;;8.00;37.20;;;;;;6094771;23;20233;-77
2021/04/25 00:20:36;;;;;;;5.30;4.03;;;7.90;37.30;;;;;;6095278;23;20201;-76
2021/04/25 00:23:04;;;;;;;7.80;4.80;;;7.80;37.70;;;;;;6095416;23;20209;-77
2021/04/25 00:25:30;;;;;;;7.10;4.72;;;7.80;38.10;;;;;;6095175;23;20185;-76
2021/04/25 00:27:57;;;;;;;6.45;4.45;;;7.90;38.70;;;;;;6094965;23;20274;-77
2021/04/25 00:30:23;;;;;;;9.63;4.80;;;7.90;38.70;;;;;;6095478;23;20212;-78
2021/04/25 00:32:50;;;;;;;5.72;4.72;;;7.80;38.60;;;;;;6095804;23;20494;-77
2021/04/25 00:35:18;;;;;;;6.25;4.35;;;7.80;38.60;;;;;;6097463;23;20503;-77
2021/04/25 00:37:45;;;;;;;8.50;5.35;;;7.70;38.50;;;;;;6096099;23;20213;-76
2021/04/25 00:40:14;;;;;;;7.97;5.07;;;7.70;38.50;;;;;;6096885;23;20308;-76
2021/04/25 00:42:41;;;;;;;8.40;4.57;;;7.70;38.50;;;;;;6097286;23;20224;-77
2021/04/25 00:45:12;;;;;;;9.43;5.57;;;7.70;38.50;;;;;;6097783;23;20187;-77
2021/04/25 00:47:39;;;;;;;7.00;4.70;;;7.70;38.50;;;;;;6097543;23;20197;-77
2021/04/25 00:50:06;;;;;;;7.88;5.35;;;7.70;38.50;;;;;;6097198;23;20732;-77
2021/04/25 00:52:36;;;;;;;5.78;4.30;;;7.60;39.00;;;;;;6100524;23;20192;-78
2021/04/25 00:55:04;;;;;;;7.60;4.93;;;7.60;39.60;;;;;;6101357;23;20196;-76
2021/04/25 00:57:31;;;;;;;6.70;4.47;;;7.50;40.00;;;;;;6105455;23;20212;-77
2021/04/25 00:59:58;;;;;;;7.68;4.55;;;7.40;40.20;;;;;;6113303;23;20243;-77
2021/04/25 01:02:25;;;;;;;7.82;4.78;;;7.40;40.30;;;;;;6115133;23;20177;-77
2021/04/25 01:04:52;;;;;;;6.82;5.10;;;7.40;40.50;;;;;;6101734;23;20651;-77
2021/04/25 01:07:18;;;;;;;5.78;4.85;;;7.30;40.60;;;;;;6096500;23;20223;-76
2021/04/25 01:09:45;;;;;;;7.20;4.70;;;7.30;41.00;;;;;;6097550;23;20663;-76
2021/04/25 01:12:12;;;;;;;8.60;3.95;;;7.20;41.10;;;;;;6097082;23;20219;-75
2021/04/25 01:14:39;;;;;;;7.10;5.03;;;7.20;41.30;;;;;;6097337;23;20354;-77
2021/04/25 01:17:05;;;;;;;7.30;4.82;;;7.20;41.70;;;;;;6095958;23;20212;-77
2021/04/25 01:19:32;;;;;;;5.82;4.50;;;7.10;41.80;;;;;;6097193;23;20201;-77
2021/04/25 01:21:59;;;;;;;9.77;4.78;;;7.10;41.90;;;;;;6115172;23;20185;-77
2021/04/25 01:24:26;;;;;;;5.57;3.85;;;7.10;42.50;;;;;;6121816;23;20225;-75
2021/04/25 01:26:52;;;;;;;9.88;5.15;;;7.10;42.60;;;;;;6102751;23;20181;-76
2021/04/25 01:29:19;;;;;;;7.05;5.07;;;7.10;43.20;;;;;;6100850;23;20211;-77
2021/04/25 01:31:45;;;;;;;8.93;4.40;;;7.00;42.80;;;;;;6100240;23;20561;-76
2021/04/25 01:34:11;;;;;;;8.38;5.15;;;7.00;43.10;;;;;;6109736;23;20186;-77
2021/04/25 01:36:38;;;;;;;10.15;5.35;;;7.00;43.50;;;;;;6103221;23;20687;-77
2021/04/25 01:39:06;;;;;;;7.43;4.32;;;6.90;43.60;;;;;;6105340;23;20209;-77
2021/04/25 01:41:32;;;;;;;6.40;4.68;;;6.90;43.80;;;;;;6108162;23;20185;-77
2021/04/25 01:43:59;;;;;;;7.07;5.18;;;6.90;44.10;;;;;;6103639;23;20205;-77
2021/04/25 01:46:25;;;;;;;10.10;5.45;;;6.80;44.60;;;;;;6095443;23;20499;-76
2021/04/25 01:48:51;;;;;;;6.32;5.10;;;6.80;44.70;;;;;;6095832;23;20717;-76
2021/04/25 01:51:18;;;;;;;7.47;5.45;;;6.80;44.70;;;;;;6096406;23;20225;-76
2021/04/25 01:53:44;;;;;;;8.50;5.72;;;6.80;45.00;;;;;;6096086;23;20200;-76
2021/04/25 01:56:12;;;;;;;11.60;6.00;;;6.80;45.50;;;;;;6095438;23;20212;-77
2021/04/25 01:58:38;;;;;;;7.30;5.35;;;6.80;45.40;;;;;;6095643;23;20201;-76
2021/04/25 02:01:05;;;;;;;11.00;5.65;;;6.80;45.80;;;;;;6095918;23;20732;-76
2021/04/25 02:03:32;;;;;;;8.95;6.05;;;6.70;46.10;;;;;;6096352;23;20566;-76
2021/04/25 02:05:58;;;;;;;8.60;5.18;;;6.70;46.40;;;;;;6096339;23;20678;-77
2021/04/25 02:08:25;;;;;;;8.27;5.00;;;6.60;47.30;;;;;;6095914;23;20240;-77
2021/04/25 02:10:51;;;;;;;8.93;6.18;;;6.60;47.30;;;;;;6096712;23;20520;-77
2021/04/25 02:13:19;;;;;;;8.40;5.65;;;6.60;47.30;;;;;;6097064;23;20216;-77
2021/04/25 02:15:46;;;;;;;6.63;4.65;;;6.60;47.30;;;;;;6110834;23;20176;-78
2021/04/25 02:18:12;;;;;;;7.35;5.65;;;6.60;47.30;;;;;;6114941;23;20221;-77
2021/04/25 02:20:39;;;;;;;10.13;5.45;;;6.50;47.10;;;;;;6101414;23;20217;-76
2021/04/25 02:23:06;;;;;;;9.02;5.47;;;6.50;47.20;;;;;;6095535;23;20228;-77
2021/04/25 02:25:33;;;;;;;10.45;5.15;;;6.50;47.20;;;;;;6095166;23;20444;-77
2021/04/25 02:27:59;;;;;;;10.52;6.15;;;6.40;47.60;;;;;;6095061;23;20232;-76
2021/04/25 02:30:29;;;;;;;10.40;6.95;;;6.30;48.20;;;;;;6095899;23;20204;-77
2021/04/25 02:32:57;;;;;;;6.45;5.75;;;6.30;48.90;;;;;;6095874;23;20195;-77
2021/04/25 02:35:25;;;;;;;7.85;5.93;;;6.30;49.30;;;;;;6095686;23;20260;-77
2021/04/25 02:37:52;;;;;;;11.90;6.05;;;6.30;49.70;;;;;;6095048;23;20310;-76
2021/04/25 02:40:22;;;;;;;8.10;5.90;;;6.20;50.10;;;;;;6096260;23;20218;-77
2021/04/25 02:42:49;;;;;;;10.68;6.20;;;6.20;50.10;;;;;;6097033;23;20260;-77
2021/04/25 02:45:17;;;;;;;10.52;5.50;;;6.20;50.70;;;;;;6097626;23;20185;-75
2021/04/25 02:47:48;;;;;;;9.32;6.50;;;6.10;51.20;;;;;;6097666;23;20212;-77
2021/04/25 02:50:15;;;;;;;11.77;6.75;;;6.10;51.60;;;;;;6114186;23;20184;-77
2021/04/25 02:52:42;;;;;;;11.40;7.38;;;6.00;52.20;;;;;;6110232;23;20192;-76
2021/04/25 02:55:09;;;;;;;7.18;6.40;;;6.00;52.70;;;;;;6116218;23;20169;-78
2021/04/25 02:57:36;;;;;;;8.07;5.95;;;6.00;53.10;;;;;;6121400;23;20285;-77
2021/04/25 03:00:04;;;;;;;10.85;7.47;;;5.90;53.10;;;;;;6120604;23;20209;-76
2021/04/25 03:02:30;;;;;;;11.48;7.25;;;5.90;54.00;;;;;;6095512;23;20264;-76
2021/04/25 03:04:57;;;;;;;8.70;6.60;;;5.90;54.20;;;;;;6095591;23;20213;-77
2021/04/25 03:07:24;;;;;;;9.18;6.40;;;5.80;54.80;;;;;;6096032;23;20232;-76
2021/04/25 03:09:50;;;;;;;6.97;6.28;;;5.80;54.50;;;;;;6098238;23;20228;-77
2021/04/25 03:12:16;;;;;;;8.40;6.43;;;5.70;54.90;;;;;;6097566;23;20235;-76
2021/04/25 03:14:43;;;;;;;9.75;6.70;;;5.70;55.90;;;;;;6099347;23;20783;-77
2021/04/25 03:17:09;;;;;;;10.18;6.72;;;5.70;55.90;;;;;;6096188;23;20716;-77
2021/04/25 03:19:36;;;;;;;11.93;6.60;;;5.60;55.80;;;;;;6096906;23;20715;-76
2021/04/25 03:22:03;;;;;;;8.68;6.93;;;5.60;55.80;;;;;;6096891;23;20256;-77
2021/04/25 03:24:30;;;;;;;8.15;6.40;;;5.50;55.80;;;;;;6095802;23;20213;-78
2021/04/25 03:26:56;;;;;;;10.50;6.40;;;5.50;55.80;;;;;;6095233;23;20182;-77
2021/04/25 03:29:22;;;;;;;9.27;6.85;;;5.50;55.80;;;;;;6095573;23;20259;-77
2021/04/25 03:31:49;;;;;;;8.38;6.60;;;5.50;56.40;;;;;;6095358;23;20489;-76
2021/04/25 03:34:15;;;;;;;7.25;6.20;;;5.40;57.00;;;;;;6095276;23;20632;-77
2021/04/25 03:36:42;;;;;;;10.85;7.22;;;5.40;57.30;;;;;;6095103;23;20186;-78
2021/04/25 03:39:09;;;;;;;8.82;6.38;;;5.30;58.20;;;;;;6095601;23;20197;-77
2021/04/25 03:41:36;;;;;;;9.10;5.90;;;5.20;59.10;;;;;;6095929;23;20189;-76
2021/04/25 03:44:02;;;;;;;8.82;5.65;;;5.20;59.10;;;;;;6095686;23;20181;-76
2021/04/25 03:46:29;;;;;;;9.45;5.95;;;5.20;59.10;;;;;;6096453;23;20663;-77
2021/04/25 03:48:55;;;;;;;8.55;6.30;;;5.10;59.30;;;;;;6100901;23;20233;-76
2021/04/25 03:51:22;;;;;;;8.50;6.30;;;5.10;59.50;;;;;;6098450;23;20187;-76
2021/04/25 03:53:49;;;;;;;10.15;5.60;;;5.10;59.80;;;;;;6095898;23;20217;-77
2021/04/25 03:56:16;;;;;;;8.98;5.88;;;5.00;59.90;;;;;;6095048;23;20669;-77
2021/04/25 03:58:42;;;;;;;7.78;5.65;;;5.00;60.30;;;;;;6095703;23;20299;-76
2021/04/25 04:01:09;;;;;;;8.48;6.60;;;5.00;60.30;;;;;;6095685;23;20245;-76
2021/04/25 04:03:35;;;;;;;11.25;6.88;;;4.90;60.80;;;;;;6095632;23;20220;-77
2021/04/25 04:06:02;;;;;;;11.57;7.10;;;4.90;61.30;;;;;;6095761;23;20185;-77
2021/04/25 04:08:28;;;;;;;9.23;7.10;;;4.90;61.70;;;;;;6095010;23;20201;-77
2021/04/25 04:10:54;;;;;;;9.55;6.13;;;4.90;61.20;;;;;;6095941;23;20197;-77
2021/04/25 04:13:22;;;;;;;9.13;6.68;;;4.90;61.20;;;;;;6096025;23;20221;-77
2021/04/25 04:15:48;;;;;;;7.10;5.97;;;4.80;61.30;;;;;;6095642;23;20563;-76
2021/04/25 04:18:14;;;;;;;9.43;6.38;;;4.70;61.60;;;;;;6094788;23;20656;-77
2021/04/25 04:20:41;;;;;;;8.20;5.55;;;4.70;62.80;;;;;;6095849;23;20303;-77
2021/04/25 04:23:07;;;;;;;10.77;6.65;;;4.70;63.10;;;;;;6096105;23;20258;-77
2021/04/25 04:25:34;;;;;;;9.77;6.45;;;4.70;63.20;;;;;;6095423;23;20209;-76
2021/04/25 04:28:00;;;;;;;11.02;6.30;;;4.70;63.80;;;;;;6094477;23;20710;-77
2021/04/25 04:30:27;;;;;;;9.73;6.63;;;4.70;63.60;;;;;;6095050;23;20769;-77
2021/04/25 04:32:54;;;;;;;13.57;7.45;;;4.70;63.40;;;;;;6095521;23;20185;-76
2021/04/25 04:35:20;;;;;;;10.73;6.85;;;4.70;63.30;;;;;;6097766;23;20247;-78
2021/04/25 04:37:47;;;;;;;11.32;6.90;;;4.80;62.80;;;;;;6107185;23;20209;-76
2021/04/25 04:40:15;;;;;;;7.15;6.20;;;4.80;62.80;;;;;;6101861;23;20223;-75
2021/04/25 04:42:41;;;;;;;11.90;6.22;;;4.80;62.70;;;;;;6108158;23;20181;-77
2021/04/25 04:45:13;;;;;;;8.68;6.57;;;4.90;63.40;;;;;;6098387;23;20612;-77
2021/04/25 04:47:40;;;;;;;11.48;7.40;;;5.10;63.10;;;;;;6107724;23;20233;-78
2021/04/25 04:50:07;;;;;;;9.80;5.95;;;5.50;60.30;;;;;;6109416;23;20181;-77
2021/04/25 04:52:34;;;;;;;7.75;5.63;;;5.90;57.80;;;;;;6097934;23;20185;-76
2021/04/25 04:55:00;;;;;;;7.25;6.00;;;6.40;55.40;;;;;;6095250;23;20208;-77
2021/04/25 04:57:27;;;;;;;6.10;5.50;;;6.70;52.10;;;;;;6094487;23;20207;-77
2021/04/25 04:59:53;;;;;;;9.35;6.15;;;7.00;50.40;;;;;;6095139;23;20698;-76
2021/04/25 05:02:19;;;;;;;6.63;5.60;;;7.10;49.10;;;;;;6095445;23;20273;-77
2021/04/25 05:04:47;;;;;;;8.40;5.57;;;7.10;48.10;;;;;;6096820;23;20312;-76
2021/04/25 05:07:13;;;;;;;9.38;6.13;;;7.10;47.70;;;;;;6094927;23;20240;-77
2021/04/25 05:09:39;;;;;;;8.85;5.32;;;7.30;47.90;;;;;;6095767;23;20520;-77
2021/04/25 05:12:07;;;;;;;8.38;5.93;;;7.50;48.00;;;;;;6095396;23;20186;-77
2021/04/25 05:14:34;;;;;;;9.13;5.88;;;7.60;47.00;;;;;;6095739;23;20503;-77
2021/04/25 05:17:00;;;;;;;7.43;5.45;;;7.80;46.50;;;;;;6096919;23;20185;-76
2021/04/25 05:19:26;;;;;;;8.73;6.55;;;8.20;44.60;;;;;;6097659;23;20233;-76
2021/04/25 05:21:54;;;;;;;10.65;5.90;;;8.50;43.70;;;;;;6098154;23;20185;-77
2021/04/25 05:24:20;;;;;;;8.32;5.55;;;8.70;42.40;;;;;;6099609;23;20240;-76
2021/04/25 05:26:46;;;;;;;7.97;5.25;;;8.70;42.50;;;;;;6099897;23;20232;-77
2021/04/25 05:29:13;;;;;;;8.13;5.65;;;8.70;42.70;;;;;;6100604;23;20252;-77
2021/04/25 05:31:40;;;;;;;6.68;5.75;;;8.90;42.20;;;;;;6098590;23;20263;-76
2021/04/25 05:34:07;;;;;;;8.70;5.80;;;9.40;40.00;;;;;;6098429;23;20204;-76
2021/04/25 05:36:33;;;;;;;8.73;5.82;;;9.60;40.20;;;;;;6098716;23;20181;-77
2021/04/25 05:39:01;;;;;;;8.25;6.35;;;9.80;38.40;;;;;;6100119;23;20225;-77
2021/04/25 05:41:27;;;;;;;10.75;6.03;;;9.80;39.40;;;;;;6112577;23;20192;-74
2021/04/25 05:43:54;;;;;;;7.82;5.90;;;9.80;38.40;;;;;;6122628;23;20180;-74
2021/04/25 05:46:20;;;;;;;7.72;6.85;;;9.20;39.80;;;;;;6122529;23;20174;-74
2021/04/25 05:48:48;;;;;;;7.28;5.47;;;8.40;42.80;;;;;;6122878;23;20205;-75
2021/04/25 05:51:15;;;;;;;9.20;6.85;;;8.50;42.80;;;;;;6122235;23;20180;-76
2021/04/25 05:53:42;;;;;;;11.02;6.53;;;8.40;42.60;;;;;;6121613;23;20180;-75
2021/04/25 05:56:09;;;;;;;7.90;6.00;;;8.30;42.80;;;;;;6122301;23;20185;-74
2021/04/25 05:58:36;;;;;;;9.57;6.13;;;8.70;42.70;;;;;;6120415;23;20213;-77
2021/04/25 06:01:02;;;;;;;12.45;7.38;;;9.30;39.90;;;;;;6102429;23;20178;-77
2021/04/25 06:03:29;;;;;;;14.25;7.32;;;9.20;39.80;;;;;;6102747;23;20261;-74
2021/04/25 06:05:55;;;;;;;9.32;7.47;;;8.70;41.70;;;;;;6103053;23;20217;-77
2021/04/25 06:08:22;;;;;;;10.50;7.07;;;8.60;42.40;;;;;;6103151;23;20224;-77
2021/04/25 06:10:48;;;;;;;12.35;7.75;;;8.70;41.90;;;;;;6105906;23;20216;-78
2021/04/25 06:13:15;;;;;;;13.85;8.38;;;8.60;42.40;;;;;;6101550;23;20694;-77
2021/04/25 06:15:42;;;;;;;12.82;7.30;;;8.60;42.60;;;;;;6102248;23;20197;-77
2021/04/25 06:18:08;;;;;;;10.40;6.72;;;8.80;42.00;;;;;;6101912;23;20232;-77
2021/04/25 06:20:35;;;;;;;12.02;8.00;;;8.90;42.20;;;;;;6103733;23;20208;-77
2021/04/25 06:23:01;;;;;;;10.60;7.00;;;9.00;41.70;;;;;;6105295;23;20186;-78
2021/04/25 06:25:27;;;;;;;14.48;7.50;;;9.30;39.90;;;;;;6106646;23;20547;-75
2021/04/25 06:27:54;;;;;;;10.57;7.18;;;8.80;40.80;;;;;;6103616;23;20206;-75
2021/04/25 06:30:22;;;;;;;13.00;7.80;;;8.90;41.00;;;;;;6114227;23;20192;-76
2021/04/25 06:32:49;;;;;;;14.35;8.25;;;8.90;40.40;;;;;;6118127;23;20177;-76
2021/04/25 06:35:16;;;;;;;10.23;7.30;;;8.50;42.80;;;;;;6117551;23;20217;-76
2021/04/25 06:37:46;;;;;;;9.02;7.13;;;8.00;43.30;;;;;;6114008;23;20217;-76
2021/04/25 06:40:14;;;;;;;10.45;7.32;;;7.90;43.60;;;;;;6116066;23;20205;-76
2021/04/25 06:42:40;;;;;;;11.15;7.43;;;7.90;43.60;;;;;;6115393;23;20213;-77
2021/04/25 06:45:09;;;;;;;12.18;7.97;;;8.00;43.50;;;;;;6118265;23;20181;-77
2021/04/25 06:47:37;;;;;;;10.93;7.50;;;8.00;43.60;;;;;;6119124;23;20205;-77
2021/04/25 06:50:06;;;;;;;11.07;7.43;;;8.00;43.60;;;;;;6120751;23;20169;-75
2021/04/25 06:52:32;;;;;;;11.02;7.63;;;8.00;43.60;;;;;;6120312;23;20195;-75
2021/04/25 06:54:58;;;;;;;9.75;7.43;;;8.00;43.60;;;;;;6119460;23;20188;-75
2021/04/25 06:57:25;;;;;;;12.75;7.63;;;8.00;43.60;;;;;;6118227;23;20209;-75
2021/04/25 06:59:51;;;;;;;10.20;6.82;;;8.10;43.70;;;;;;6111781;23;20256;-75
2021/04/25 07:02:18;;;;;;;9.52;7.35;;;8.30;43.40;;;;;;6122294;23;20181;-75
2021/04/25 07:04:45;;;;;;;9.85;6.82;;;8.50;42.50;;;;;;6122668;23;20169;-75
2021/04/25 07:07:12;;;;;;;13.05;6.85;;;8.70;42.10;;;;;;6121648;23;20611;-74
2021/04/25 07:09:40;;;;;;;13.70;8.00;;;8.70;41.50;;;;;;6122267;23;20164;-75
2021/04/25 07:12:07;;;;;;;9.38;6.32;;;8.70;41.50;;;;;;6122523;23;20169;-75
2021/04/25 07:14:33;;;;;;;12.52;6.85;;;8.90;41.10;;;;;;6122517;23;20193;-75
2021/04/25 07:17:00;;;;;;;13.63;7.32;;;8.80;41.00;;;;;;6121778;23;20176;-74
2021/04/25 07:19:27;;;;;;;10.85;6.70;;;8.90;40.50;;;;;;6118227;23;20201;-79
2021/04/25 07:21:54;;;;;;;13.65;7.40;;;9.00;40.20;;;;;;6116494;23;20216;-76
2021/04/25 07:24:20;;;;;;;10.70;7.32;;;9.00;39.60;;;;;;6115539;23;20193;-75
2021/04/25 07:26:47;;;;;;;10.20;7.13;;;9.00;40.00;;;;;;6115393;23;20192;-77
2021/04/25 07:29:14;;;;;;;9.18;6.97;;;9.10;39.70;;;;;;6116173;23;20207;-76
2021/04/25 07:31:41;;;;;;;11.20;6.78;;;9.20;39.80;;;;;;6114763;23;20195;-77
2021/04/25 07:34:08;;;;;;;8.70;5.47;;;9.40;40.00;;;;;;6115076;23;20185;-77
2021/04/25 07:36:34;;;;;;;10.52;6.60;;;9.60;38.40;;;;;;6114066;23;20204;-75
2021/04/25 07:39:02;;;;;;;10.27;6.80;;;9.70;38.50;;;;;;6114552;23;20209;-77
2021/04/25 07:41:29;;;;;;;9.85;7.53;;;9.70;38.00;;;;;;6116363;23;20237;-77
2021/04/25 07:43:56;;;;;;;12.05;7.18;;;9.90;37.50;;;;;;6115729;23;20185;-76
2021/04/25 07:46:23;;;;;;;8.27;5.95;;;10.00;36.30;;;;;;6114396;23;20185;-77
2021/04/25 07:48:49;;;;;;;9.05;6.13;;;10.30;35.20;;;;;;6118239;23;20252;-75
2021/04/25 07:51:16;;;;;;;7.90;6.43;;;10.30;35.20;;;;;;6118902;23;20185;-78
2021/04/25 07:53:42;;;;;;;10.27;7.50;;;10.20;35.30;;;;;;6111890;23;20193;-77
2021/04/25 07:56:12;;;;;;;11.45;6.88;;;10.20;35.50;;;;;;6120120;23;20316;-76
2021/04/25 07:58:38;;;;;;;10.45;6.95;;;10.30;35.10;;;;;;6119272;23;20209;-76
2021/04/25 08:01:04;;;;;;;9.98;7.90;;;10.40;34.90;;;;;;6111869;23;20519;-78
2021/04/25 08:03:31;;;;;;;8.85;7.40;;;10.40;34.70;;;;;;6102110;23;20264;-76
2021/04/25 08:05:57;;;;;;;11.63;7.35;;;10.10;35.70;;;;;;6104848;23;20185;-77
2021/04/25 08:08:24;;;;;;;8.43;6.90;;;10.40;35.20;;;;;;6105605;23;20229;-77
2021/04/25 08:10:50;;;;;;;10.30;7.15;;;10.40;34.60;;;;;;6103702;23;20181;-78
2021/04/25 08:13:17;;;;;;;9.13;7.30;;;10.60;34.80;;;;;;6103706;23;20208;-76
2021/04/25 08:15:44;;;;;;;15.32;7.80;;;10.80;34.50;;;;;;6103103;23;20260;-76
2021/04/25 08:18:10;;;;;;;12.40;7.60;;;10.80;34.00;;;;;;6100352;23;20205;-77
2021/04/25 08:20:37;;;;;;;11.30;7.57;;;11.00;33.60;;;;;;6102882;23;20245;-77
2021/04/25 08:23:03;;;;;;;12.48;7.50;;;10.90;33.40;;;;;;6101242;23;20212;-77
2021/04/25 08:25:29;;;;;;;10.05;7.45;;;11.00;33.90;;;;;;6101828;23;20185;-77
2021/04/25 08:27:56;;;;;;;7.70;6.70;;;11.20;32.90;;;;;;6104040;23;20205;-77
2021/04/25 08:30:24;;;;;;;8.73;6.80;;;11.30;32.80;;;;;;6114800;23;20181;-76
2021/04/25 08:32:50;;;;;;;11.63;6.95;;;10.90;33.40;;;;;;6111669;23;20189;-77
2021/04/25 08:35:18;;;;;;;11.75;7.25;;;10.80;33.80;;;;;;6111708;23;20224;-76
2021/04/25 08:37:44;;;;;;;12.20;7.20;;;11.10;33.80;;;;;;6112619;23;20220;-76
2021/04/25 08:40:11;;;;;;;8.50;7.25;;;11.50;32.90;;;;;;6107316;23;20239;-76
2021/04/25 08:42:38;;;;;;;9.50;8.10;;;11.80;31.30;;;;;;6111836;23;20185;-77
2021/04/25 08:45:07;;;;;;;10.93;7.72;;;11.80;31.80;;;;;;6108778;23;20190;-76
2021/04/25 08:47:45;;;;;;;12.30;7.28;;;11.90;31.20;;;;;;6112923;23;20217;-76
2021/04/25 08:50:13;;;;;;;11.95;8.68;;;11.80;31.10;;;;;;6108577;23;20153;-77
2021/04/25 08:52:40;;;;;;;11.63;7.15;;;11.90;31.20;;;;;;6108332;23;20260;-76
2021/04/25 08:55:08;;;;;;;9.88;8.20;;;12.10;31.50;;;;;;6112723;23;20217;-78
2021/04/25 08:57:34;;;;;;;11.60;6.97;;;12.10;31.40;;;;;;6111661;23;20205;-77
2021/04/25 09:00:00;;;;;;;11.88;7.25;;;12.20;31.50;;;;;;6112148;23;20201;-77
2021/04/25 09:02:28;;;;;;;9.88;7.65;;;12.20;31.50;;;;;;6112167;23;20201;-77
2021/04/25 09:04:57;;;;;;;9.50;7.13;;;11.80;31.10;;;;;;6110320;23;20194;-77
2021/04/25 09:07:24;;;;;;;10.45;8.20;;;12.10;31.40;;;;;;6111282;23;20210;-75
2021/04/25 09:09:52;;;;;;;13.07;7.90;;;12.40;30.90;;;;;;6110928;23;20188;-77
2021/04/25 09:12:33;;;;;;;9.80;7.60;;;12.40;31.00;;;;;;6110715;23;20185;-77
2021/04/25 09:15:00;;;;;;;12.90;7.70;;;12.50;30.60;;;;;;6112672;23;20185;-78
2021/04/25 09:17:27;;;;;;;13.02;7.90;;;12.70;30.80;;;;;;6109895;23;20205;-77
2021/04/25 09:19:56;;;;;;;13.60;7.53;;;12.80;29.80;;;;;;6110327;23;20197;-77
2021/04/25 09:22:24;;;;;;;11.18;7.60;;;12.90;29.40;;;;;;6113446;23;20185;-78
2021/04/25 09:25:05;;;;;;;10.02;7.40;;;12.90;29.30;;;;;;6108482;23;20192;-77
2021/04/25 09:27:31;;;;;;;9.05;7.35;;;13.10;29.00;;;;;;6109845;23;20205;-78
2021/04/25 09:29:58;;;;;;;10.82;7.95;;;13.00;29.10;;;;;;6119604;23;20192;-77
2021/04/25 09:32:29;;;;;;;8.48;6.80;;;13.10;28.80;;;;;;6117434;23;20193;-76
2021/04/25 09:35:10;;;;;;;9.15;6.70;;;13.20;28.20;;;;;;6109140;23;20474;-77
2021/04/25 09:37:38;;;;;;;10.20;7.78;;;13.30;27.90;;;;;;6111844;23;20205;-81
2021/04/25 09:40:08;;;;;;;10.32;6.78;;;12.80;29.00;;;;;;6118339;23;20209;-82
2021/04/25 09:42:55;;;;;;;9.02;6.95;;;13.10;28.40;;;;;;6122528;23;20172;-81
2021/04/25 09:45:27;;;;;;;9.57;6.80;;;13.40;27.80;;;;;;6121487;23;20153;-82
2021/04/25 09:47:54;;;;;;;9.77;7.53;;;13.50;27.20;;;;;;6120769;23;20230;-80
2021/04/25 09:50:22;;;;;;;8.45;6.93;;;13.50;26.90;;;;;;6120656;23;20295;-80
2021/04/25 09:52:50;;;;;;;9.50;6.60;;;13.50;26.40;;;;;;6118351;23;20185;-78
2021/04/25 09:55:19;;;;;;;10.70;7.10;;;13.60;26.50;;;;;;6116910;23;20185;-81
2021/04/25 09:57:46;;;;;;;11.77;7.18;;;13.70;26.80;;;;;;6113098;23;20208;-82
2021/04/25 10:00:14;;;;;;;9.68;6.85;;;13.50;26.30;;;;;;6109305;23;20197;-81
2021/04/25 10:02:58;;;;;;;10.05;7.13;;;13.80;25.90;;;;;;6108840;23;20177;-79
2021/04/25 10:05:28;;;;;;;8.40;6.32;;;13.90;24.50;;;;;;6108821;23;20628;-78
2021/04/25 10:07:55;;;;;;;7.38;5.88;;;14.00;24.70;;;;;;6108364;23;20202;-80
2021/04/25 10:10:22;;;;;;;8.88;5.93;;;14.00;24.60;;;;;;6116664;23;20200;-81
2021/04/25 10:12:49;;;;;;;8.75;6.03;;;14.10;24.60;;;;;;6112272;23;20185;-79
2021/04/25 10:15:17;;;;;;;8.73;6.05;;;14.40;24.30;;;;;;6106917;23;20189;-81
2021/04/25 10:17:45;;;;;;;13.43;6.10;;;14.00;24.60;;;;;;6104212;23;20253;-81
2021/04/25 10:20:12;;;;;;;8.40;5.97;;;13.80;24.40;;;;;;6104823;23;20198;-82
2021/04/25 10:22:42;;;;;;;8.95;6.35;;;13.90;24.50;;;;;;6104564;23;20177;-80
2021/04/25 10:25:13;;;;;;;10.52;6.72;;;14.00;24.60;;;;;;6104522;23;20192;-81
2021/04/25 10:27:52;;;;;;;8.02;5.90;;;14.20;23.50;;;;;;6105860;23;20236;-81
2021/04/25 10:30:20;;;;;;;11.68;6.00;;;14.30;23.80;;;;;;6121097;23;20187;-81
2021/04/25 10:32:54;;;;;;;6.95;5.22;;;14.50;23.40;;;;;;6119078;23;20205;-81
2021/04/25 10:35:23;;;;;;;7.15;6.13;;;14.60;23.20;;;;;;6104823;23;20249;-80
2021/04/25 10:37:50;;;;;;;7.93;5.68;;;14.80;21.70;;;;;;6103216;23;20636;-81
2021/04/25 10:40:22;;;;;;;9.38;7.47;;;14.50;22.50;;;;;;6105593;23;20210;-81
2021/04/25 10:43:11;;;;;;;7.35;5.40;;;14.40;22.70;;;;;;6110150;23;20528;-81
2021/04/25 10:45:55;;;;;;;10.63;7.28;;;14.50;22.80;;;;;;6109345;23;20177;-80
2021/04/25 10:48:25;;;;;;;7.03;5.72;;;14.50;22.90;;;;;;6111214;23;20205;-80
2021/04/25 10:51:09;;;;;;;9.55;5.63;;;14.00;23.60;;;;;;6119831;23;20153;-85
2021/04/25 10:53:38;;;;;;;9.27;5.82;;;14.40;23.60;;;;;;6120055;23;20692;-81
2021/04/25 10:56:39;;;;;;;6.80;5.85;;;14.70;22.20;;;;;;6110143;23;20213;-80
2021/04/25 10:59:27;;;;;;;14.50;6.00;;;14.50;21.50;;;;;;6107538;23;20264;-80
2021/04/25 11:01:59;;;;;;;6.17;5.20;;;14.60;21.60;;;;;;6112464;23;20194;-81
2021/04/25 11:05:05;;;;;;;8.20;5.67;;;14.80;22.00;;;;;;6116801;23;20394;-77
2021/04/25 11:07:46;;;;;;;6.40;4.80;;;15.20;20.20;;;;;;6114372;23;20435;-80
2021/04/25 11:10:19;;;;;;;7.83;4.67;;;15.20;20.00;;;;;;6113683;23;20751;-78
2021/04/25 11:12:46;;;;;;;7.13;4.40;;;15.30;20.50;;;;;;6112826;23;20452;-80
2021/04/25 11:15:46;;;;;;;6.35;4.80;;;15.20;20.40;;;;;;6114302;23;20387;-81
2021/04/25 11:18:46;;;;;;;8.38;5.00;;;15.10;20.80;;;;;;6115113;23;20680;-80
2021/04/25 11:21:41;;;;;;;5.87;4.67;;;15.20;19.90;;;;;;6117854;23;20178;-80
2021/04/25 11:24:29;;;;;;;6.50;5.00;;;15.50;19.80;;;;;;6118564;23;20376;-82
2021/04/25 11:26:59;;;;;;;7.50;4.77;;;15.20;19.40;;;;;;6117037;23;20413;-82
2021/04/25 11:29:52;;;;;;;6.77;4.90;;;15.40;18.60;;;;;;6120633;23;20448;-79
2021/04/25 11:32:39;;;;;;;8.93;4.37;;;15.60;17.50;;;;;;6116123;23;20416;-80
2021/04/25 11:35:13;;;;;;;5.10;4.40;;;15.60;17.50;;;;;;6111321;23;20424;-81
2021/04/25 11:37:41;;;;;;;5.68;3.90;;;15.60;18.30;;;;;;6106530;23;20479;-81
2021/04/25 11:40:10;;;;;;;5.20;4.07;;;15.50;17.40;;;;;;6112913;23;20284;-81
2021/04/25 11:42:44;;;;;;;6.07;3.60;;;15.60;17.50;;;;;;6113781;23;20426;-80
2021/04/25 11:45:13;;;;;;;7.97;4.20;;;15.40;17.30;;;;;;6116027;23;20436;-81
2021/04/25 11:47:48;;;;;;;6.17;3.47;;;15.60;17.40;;;;;;6116588;23;20757;-82
2021/04/25 11:50:16;;;;;;;8.53;3.70;;;15.70;17.50;;;;;;6115298;23;20402;-79
2021/04/25 11:52:42;;;;;;;8.23;3.43;;;15.60;17.00;;;;;;6112645;23;20421;-79
2021/04/25 11:55:11;;;;;;;4.83;3.40;;;15.50;16.90;;;;;;6116438;23;20443;-80
2021/04/25 11:57:40;;;;;;;5.80;4.13;;;15.40;17.30;;;;;;6113945;23;20416;-79
2021/04/25 12:00:09;;;;;;;4.83;3.57;;;15.60;16.30;;;;;;6107146;23;20494;-79
2021/04/25 12:02:37;;;;;;;4.83;4.20;;;15.80;16.50;;;;;;6104809;23;20396;-80
2021/04/25 12:05:06;;;;;;;4.40;3.50;;;16.00;16.70;;;;;;6108659;23;20454;-79
2021/04/25 12:07:40;;;;;;;4.80;4.10;;;16.20;16.30;;;;;;6113116;23;20514;-79
2021/04/25 12:10:17;;;;;;;6.50;3.47;;;16.20;16.70;;;;;;6118192;23;20420;-78
2021/04/25 12:13:08;;;;;;;7.60;3.50;;;16.50;15.70;;;;;;6119314;23;20408;-79
2021/04/25 12:15:56;;;;;;;7.03;4.27;;;15.90;17.20;;;;;;6117002;23;20425;-79
2021/04/25 12:18:25;;;;;;;5.73;4.43;;;16.20;16.40;;;;;;6118832;23;20460;-77
2021/04/25 12:20:53;;;;;;;6.40;3.63;;;16.30;15.40;;;;;;6121704;23;20411;-78
2021/04/25 12:23:21;;;;;;;7.67;3.47;;;16.30;15.80;;;;;;6121572;23;20375;-77
2021/04/25 12:25:49;;;;;;;3.90;3.53;;;16.20;15.70;;;;;;6118576;23;20394;-79
2021/04/25 12:28:17;;;;;;;4.30;3.10;;;16.30;15.30;;;;;;6117412;23;20421;-80
2021/04/25 12:30:45;;;;;;;5.07;3.57;;;16.40;14.60;;;;;;6119147;23;20401;-79
2021/04/25 12:33:15;;;;;;;4.27;3.30;;;16.30;14.90;;;;;;6120838;23;20372;-78
2021/04/25 12:35:43;;;;;;;6.00;3.90;;;16.40;14.90;;;;;;6112238;23;20379;-80
2021/04/25 12:38:25;;;;;;;3.60;3.20;;;16.30;14.10;;;;;;6108178;23;20416;-80
2021/04/25 12:40:57;;;;;;;3.37;2.77;;;16.10;14.70;;;;;;6108980;23;20412;-80
2021/04/25 12:43:26;;;;;;;5.50;3.53;;;16.20;15.10;;;;;;6112963;23;20420;-79
2021/04/25 12:45:52;;;;;;;7.27;4.00;;;16.50;15.40;;;;;;6117958;23;20421;-79
2021/04/25 12:48:28;;;;;;;7.10;3.40;;;16.80;15.20;;;;;;6118684;23;20429;-79
2021/04/25 12:51:03;;;;;;;5.40;3.97;;;16.60;15.10;;;;;;6116136;23;20907;-81
2021/04/25 12:53:30;;;;;;;3.47;3.17;;;16.70;15.40;;;;;;6112477;23;20423;-79
2021/04/25 12:55:56;;;;;;;6.80;4.03;;;16.80;12.80;;;;;;6113612;23;20384;-80
2021/04/25 12:58:24;;;;;;;4.80;3.30;;;16.60;13.80;;;;;;6117284;23;20412;-81